sensor_id;sensor_type;location;lat;lon;timestamp;pressure;altitude;pressure_sealevel;temperature;humidity
5126;BME280;63008;53.112;8.896;2023-07-22T00:01:26;101080.06;;;14.19;100.00
5126;BME280;63008;53.112;8.896;2023-07-22T00:03:27;101074.91;;;14.18;100.00
5126;BME280;63008;53.112;8.896;2023-07-22T00:05:29;101078.31;;;14.15;100.00
5126;BME280;63008;53.112;8.896;2023-07-22T00:07:30;101079.03;;;14.12;100.00
5126;BME280;63008;53.112;8.896;2023-07-22T00:09:34;101081.78;;;14.12;100.00
5126;BME280;63008;53.112;8.896;2023-07-22T00:11:35;101073.16;;;14.13;100.00
5126;BME280;63008;53.112;8.896;2023-07-22T00:13:36;101075.47;;;14.11;100.00
5126;BME280;63008;53.112;8.896;2023-07-22T00:15:37;101076.63;;;14.10;100.00
5126;BME280;63008;53.112;8.896;2023-07-22T00:17:39;101078.13;;;14.08;100.00
5126;BME280;63008;53.112;8.896;2023-07-22T00:19:40;101079.28;;;14.07;100.00
5126;BME280;63008;53.112;8.896;2023-07-22T00:21:41;101075.69;;;14.06;100.00
5126;BME280;63008;53.112;8.896;2023-07-22T00:23:42;101070.88;;;14.03;100.00
5126;BME280;63008;53.112;8.896;2023-07-22T00:25:43;101070.75;;;14.00;100.00
5126;BME280;63008;53.112;8.896;2023-07-22T00:27:44;101073.88;;;13.98;100.00
5126;BME280;63008;53.112;8.896;2023-07-22T00:29:45;101074.66;;;13.99;100.00
5126;BME280;63008;53.112;8.896;2023-07-22T00:31:46;101080.56;;;13.97;100.00
5126;BME280;63008;53.112;8.896;2023-07-22T00:33:47;101072.88;;;13.91;100.00
5126;BME280;63008;53.112;8.896;2023-07-22T00:35:49;101072.03;;;13.90;100.00
5126;BME280;63008;53.112;8.896;2023-07-22T00:37:53;101076.44;;;13.91;100.00
5126;BME280;63008;53.112;8.896;2023-07-22T00:39:53;101073.31;;;13.93;100.00
5126;BME280;63008;53.112;8.896;2023-07-22T00:41:55;101074.03;;;13.90;100.00
5126;BME280;63008;53.112;8.896;2023-07-22T00:43:56;101071.97;;;13.87;100.00
5126;BME280;63008;53.112;8.896;2023-07-22T00:45:57;101073.13;;;13.86;100.00
5126;BME280;63008;53.112;8.896;2023-07-22T00:47:58;101068.63;;;13.81;100.00
5126;BME280;63008;53.112;8.896;2023-07-22T00:50:00;101083.69;;;13.84;100.00
5126;BME280;63008;53.112;8.896;2023-07-22T00:52:02;101074.59;;;13.83;100.00
5126;BME280;63008;53.112;8.896;2023-07-22T00:54:03;101073.81;;;13.83;100.00
5126;BME280;63008;53.112;8.896;2023-07-22T00:56:05;101069.41;;;13.82;100.00
5126;BME280;63008;53.112;8.896;2023-07-22T00:58:07;101069.34;;;13.78;100.00
5126;BME280;63008;53.112;8.896;2023-07-22T01:00:08;101070.13;;;13.79;100.00
5126;BME280;63008;53.112;8.896;2023-07-22T01:02:12;101074.84;;;13.78;100.00
5126;BME280;63008;53.112;8.896;2023-07-22T01:04:14;101066.44;;;13.75;100.00
5126;BME280;63008;53.112;8.896;2023-07-22T01:06:17;101064.03;;;13.73;100.00
5126;BME280;63008;53.112;8.896;2023-07-22T01:08:18;101058.88;;;13.72;100.00
5126;BME280;63008;53.112;8.896;2023-07-22T01:10:19;101058.88;;;13.72;100.00
5126;BME280;63008;53.112;8.896;2023-07-22T01:12:21;101054.38;;;13.67;100.00
5126;BME280;63008;53.112;8.896;2023-07-22T01:14:22;101055.53;;;13.66;100.00
5126;BME280;63008;53.112;8.896;2023-07-22T01:16:24;101058.41;;;13.70;100.00
5126;BME280;63008;53.112;8.896;2023-07-22T01:18:25;101058.50;;;13.73;100.00
5126;BME280;63008;53.112;8.896;2023-07-22T01:20:30;101049.31;;;13.69;100.00
5126;BME280;63008;53.112;8.896;2023-07-22T01:22:32;101053.25;;;13.68;100.00
5126;BME280;63008;53.112;8.896;2023-07-22T01:24:34;101047.72;;;13.68;100.00
5126;BME280;63008;53.112;8.896;2023-07-22T01:26:35;101051.28;;;13.69;100.00
5126;BME280;63008;53.112;8.896;2023-07-22T01:28:36;101039.69;;;13.63;100.00
5126;BME280;63008;53.112;8.896;2023-07-22T01:30:37;101040.47;;;13.64;100.00
5126;BME280;63008;53.112;8.896;2023-07-22T01:32:38;101042.78;;;13.62;100.00
5126;BME280;63008;53.112;8.896;2023-07-22T01:34:39;101038.41;;;13.61;100.00
5126;BME280;63008;53.112;8.896;2023-07-22T01:36:40;101047.50;;;13.61;100.00
5126;BME280;63008;53.112;8.896;2023-07-22T01:38:41;101046.34;;;13.62;100.00
5126;BME280;63008;53.112;8.896;2023-07-22T01:40:42;101042.91;;;13.65;100.00
5126;BME280;63008;53.112;8.896;2023-07-22T01:42:43;101050.38;;;13.65;100.00
5126;BME280;63008;53.112;8.896;2023-07-22T01:44:44;101043.59;;;13.62;100.00
5126;BME280;63008;53.112;8.896;2023-07-22T01:46:45;101048.22;;;13.58;100.00
5126;BME280;63008;53.112;8.896;2023-07-22T01:48:46;101045.00;;;13.56;100.00
5126;BME280;63008;53.112;8.896;2023-07-22T01:50:47;101039.50;;;13.56;100.00
5126;BME280;63008;53.112;8.896;2023-07-22T01:52:48;101045.78;;;13.57;100.00
5126;BME280;63008;53.112;8.896;2023-07-22T01:54:49;101050.03;;;13.54;100.00
5126;BME280;63008;53.112;8.896;2023-07-22T01:56:50;101048.44;;;13.53;100.00
5126;BME280;63008;53.112;8.896;2023-07-22T01:58:51;101048.53;;;13.45;100.00
5126;BME280;63008;53.112;8.896;2023-07-22T02:00:52;101052.91;;;13.46;100.00
5126;BME280;63008;53.112;8.896;2023-07-22T02:02:53;101049.47;;;13.49;100.00
5126;BME280;63008;53.112;8.896;2023-07-22T02:04:54;101051.88;;;13.50;100.00
5126;BME280;63008;53.112;8.896;2023-07-22T02:06:55;101043.59;;;13.50;100.00
5126;BME280;63008;53.112;8.896;2023-07-22T02:08:56;101052.91;;;13.46;100.00
5126;BME280;63008;53.112;8.896;2023-07-22T02:11:05;101052.44;;;13.44;100.00
5126;BME280;63008;53.112;8.896;2023-07-22T02:13:06;101047.63;;;13.41;100.00
5126;BME280;63008;53.112;8.896;2023-07-22T02:15:08;101039.72;;;13.39;100.00
5126;BME280;63008;53.112;8.896;2023-07-22T02:17:09;101040.88;;;13.38;100.00
5126;BME280;63008;53.112;8.896;2023-07-22T02:19:11;101048.00;;;13.39;100.00
5126;BME280;63008;53.112;8.896;2023-07-22T02:21:12;101040.88;;;13.38;100.00
5126;BME280;63008;53.112;8.896;2023-07-22T02:23:13;101045.25;;;13.39;100.00
5126;BME280;63008;53.112;8.896;2023-07-22T02:25:14;101040.50;;;13.40;100.00
5126;BME280;63008;53.112;8.896;2023-07-22T02:27:15;101051.41;;;13.36;100.00
5126;BME280;63008;53.112;8.896;2023-07-22T02:29:17;101042.22;;;13.32;100.00
5126;BME280;63008;53.112;8.896;2023-07-22T02:31:20;101049.59;;;13.28;100.00
5126;BME280;63008;53.112;8.896;2023-07-22T02:33:23;101040.50;;;13.28;100.00
5126;BME280;63008;53.112;8.896;2023-07-22T02:35:24;101047.97;;;13.27;100.00
5126;BME280;63008;53.112;8.896;2023-07-22T02:37:25;101050.28;;;13.25;100.00
5126;BME280;63008;53.112;8.896;2023-07-22T02:39:26;101048.44;;;13.29;100.00
5126;BME280;63008;53.112;8.896;2023-07-22T02:41:27;101062.22;;;13.29;100.00
5126;BME280;63008;53.112;8.896;2023-07-22T02:43:28;101065.31;;;13.28;100.00
5126;BME280;63008;53.112;8.896;2023-07-22T02:45:29;101066.81;;;13.25;100.00
5126;BME280;63008;53.112;8.896;2023-07-22T02:47:32;101065.41;;;13.19;100.00
5126;BME280;63008;53.112;8.896;2023-07-22T02:49:33;101067.72;;;13.17;100.00
5126;BME280;63008;53.112;8.896;2023-07-22T02:51:34;101069.56;;;13.13;100.00
5126;BME280;63008;53.112;8.896;2023-07-22T02:53:35;101071.84;;;13.11;100.00
5126;BME280;63008;53.112;8.896;2023-07-22T02:55:39;101067.50;;;13.10;100.00
5126;BME280;63008;53.112;8.896;2023-07-22T02:57:40;101066.91;;;13.05;100.00
5126;BME280;63008;53.112;8.896;2023-07-22T02:59:41;101079.75;;;13.01;100.00
5126;BME280;63008;53.112;8.896;2023-07-22T03:01:42;101079.63;;;12.97;100.00
5126;BME280;63008;53.112;8.896;2023-07-22T03:03:43;101080.91;;;13.00;100.00
5126;BME280;63008;53.112;8.896;2023-07-22T03:05:44;101080.44;;;12.98;100.00
5126;BME280;63008;53.112;8.896;2023-07-22T03:07:45;101086.28;;;12.96;100.00
5126;BME280;63008;53.112;8.896;2023-07-22T03:09:46;101085.50;;;12.96;100.00
5126;BME280;63008;53.112;8.896;2023-07-22T03:11:47;101085.16;;;12.97;100.00
5126;BME280;63008;53.112;8.896;2023-07-22T03:13:48;101082.75;;;12.96;100.00
5126;BME280;63008;53.112;8.896;2023-07-22T03:15:49;101090.53;;;12.94;100.00
5126;BME280;63008;53.112;8.896;2023-07-22T03:17:50;101088.72;;;12.98;100.00
5126;BME280;63008;53.112;8.896;2023-07-22T03:19:51;101081.47;;;12.93;100.00
5126;BME280;63008;53.112;8.896;2023-07-22T03:21:52;101085.66;;;12.91;100.00
5126;BME280;63008;53.112;8.896;2023-07-22T03:23:53;101090.25;;;12.87;100.00
5126;BME280;63008;53.112;8.896;2023-07-22T03:25:54;101094.28;;;12.89;100.00
5126;BME280;63008;53.112;8.896;2023-07-22T03:27:55;101092.94;;;12.95;100.00
5126;BME280;63008;53.112;8.896;2023-07-22T03:29:57;101094.56;;;12.96;100.00
5126;BME280;63008;53.112;8.896;2023-07-22T03:31:58;101099.16;;;12.92;100.00
5126;BME280;63008;53.112;8.896;2023-07-22T03:34:00;101102.19;;;12.91;100.00
5126;BME280;63008;53.112;8.896;2023-07-22T03:36:01;101101.91;;;12.92;100.00
5126;BME280;63008;53.112;8.896;2023-07-22T03:38:02;101095.78;;;12.87;100.00
5126;BME280;63008;53.112;8.896;2023-07-22T03:40:06;101101.28;;;12.87;100.00
5126;BME280;63008;53.112;8.896;2023-07-22T03:42:08;101098.38;;;12.83;100.00
5126;BME280;63008;53.112;8.896;2023-07-22T03:44:09;101096.78;;;12.82;100.00
5126;BME280;63008;53.112;8.896;2023-07-22T03:46:10;101103.44;;;12.81;100.00
5126;BME280;63008;53.112;8.896;2023-07-22T03:48:11;101101.50;;;12.82;100.00
5126;BME280;63008;53.112;8.896;2023-07-22T03:50:12;101102.66;;;12.81;100.00
5126;BME280;63008;53.112;8.896;2023-07-22T03:52:14;101102.66;;;12.81;100.00
5126;BME280;63008;53.112;8.896;2023-07-22T03:54:18;101100.34;;;12.83;100.00
5126;BME280;63008;53.112;8.896;2023-07-22T03:56:20;101103.91;;;12.83;100.00
5126;BME280;63008;53.112;8.896;2023-07-22T03:58:21;101106.31;;;12.85;100.00
5126;BME280;63008;53.112;8.896;2023-07-22T04:00:22;101107.78;;;12.82;100.00
5126;BME280;63008;53.112;8.896;2023-07-22T04:02:24;101105.03;;;12.82;100.00
5126;BME280;63008;53.112;8.896;2023-07-22T04:04:25;101104.72;;;12.84;100.00
5126;BME280;63008;53.112;8.896;2023-07-22T04:06:26;101111.84;;;12.85;100.00
5126;BME280;63008;53.112;8.896;2023-07-22T04:08:27;101106.66;;;12.83;100.00
5126;BME280;63008;53.112;8.896;2023-07-22T04:10:28;101112.16;;;12.83;100.00
5126;BME280;63008;53.112;8.896;2023-07-22T04:12:29;101112.16;;;12.83;100.00
5126;BME280;63008;53.112;8.896;2023-07-22T04:14:30;101117.66;;;12.83;100.00
5126;BME280;63008;53.112;8.896;2023-07-22T04:16:31;101104.50;;;12.89;100.00
5126;BME280;63008;53.112;8.896;2023-07-22T04:18:32;101114.38;;;12.90;100.00
5126;BME280;63008;53.112;8.896;2023-07-22T04:20:35;101112.44;;;12.90;100.00
5126;BME280;63008;53.112;8.896;2023-07-22T04:22:36;101122.31;;;12.91;100.00
5126;BME280;63008;53.112;8.896;2023-07-22T04:24:37;101113.72;;;12.93;100.00
5126;BME280;63008;53.112;8.896;2023-07-22T04:26:38;101125.84;;;12.92;100.00
5126;BME280;63008;53.112;8.896;2023-07-22T04:28:40;101127.97;;;12.95;100.00
5126;BME280;63008;53.112;8.896;2023-07-22T04:30:41;101116.28;;;12.98;100.00
5126;BME280;63008;53.112;8.896;2023-07-22T04:32:42;101121.88;;;13.01;100.00
5126;BME280;63008;53.112;8.896;2023-07-22T04:34:43;101119.13;;;13.01;100.00
5126;BME280;63008;53.112;8.896;2023-07-22T04:36:44;101117.97;;;13.02;100.00
5126;BME280;63008;53.112;8.896;2023-07-22T04:38:45;101129.00;;;13.02;100.00
5126;BME280;63008;53.112;8.896;2023-07-22T04:40:45;101124.53;;;13.10;100.00
5126;BME280;63008;53.112;8.896;2023-07-22T04:42:46;101135.69;;;13.13;100.00
5126;BME280;63008;53.112;8.896;2023-07-22T04:44:47;101130.06;;;13.10;100.00
5126;BME280;63008;53.112;8.896;2023-07-22T04:46:49;101136.16;;;13.15;100.00
5126;BME280;63008;53.112;8.896;2023-07-22T04:48:50;101142.59;;;13.19;100.00
5126;BME280;63008;53.112;8.896;2023-07-22T04:50:51;101152.81;;;13.19;100.00
5126;BME280;63008;53.112;8.896;2023-07-22T04:52:52;101146.31;;;13.23;100.00
5126;BME280;63008;53.112;8.896;2023-07-22T04:54:53;101148.50;;;13.30;100.00
5126;BME280;63008;53.112;8.896;2023-07-22T04:56:54;101153.78;;;13.35;100.00
5126;BME280;63008;53.112;8.896;2023-07-22T04:58:55;101143.69;;;13.39;100.00
5126;BME280;63008;53.112;8.896;2023-07-22T05:00:56;101146.66;;;13.46;100.00
5126;BME280;63008;53.112;8.896;2023-07-22T05:02:57;101161.19;;;13.67;100.00
5126;BME280;63008;53.112;8.896;2023-07-22T05:04:58;101152.31;;;13.73;99.91
5126;BME280;63008;53.112;8.896;2023-07-22T05:06:59;101147.94;;;13.72;99.61
5126;BME280;63008;53.112;8.896;2023-07-22T05:09:00;101155.06;;;13.73;100.00
5126;BME280;63008;53.112;8.896;2023-07-22T05:11:01;101150.38;;;13.74;98.90
5126;BME280;63008;53.112;8.896;2023-07-22T05:13:02;101150.03;;;13.75;99.44
5126;BME280;63008;53.112;8.896;2023-07-22T05:15:03;101158.41;;;13.79;99.06
5126;BME280;63008;53.112;8.896;2023-07-22T05:17:04;101153.81;;;13.83;99.58
5126;BME280;63008;53.112;8.896;2023-07-22T05:19:05;101151.28;;;13.90;99.16
5126;BME280;63008;53.112;8.896;2023-07-22T05:21:08;101157.00;;;13.97;98.38
5126;BME280;63008;53.112;8.896;2023-07-22T05:23:09;101161.94;;;14.03;97.63
5126;BME280;63008;53.112;8.896;2023-07-22T05:25:10;101159.78;;;14.09;96.37
5126;BME280;63008;53.112;8.896;2023-07-22T05:27:11;101154.69;;;14.11;96.77
5126;BME280;63008;53.112;8.896;2023-07-22T05:29:12;101153.66;;;14.15;95.98
5126;BME280;63008;53.112;8.896;2023-07-22T05:31:13;101151.06;;;14.19;96.07
5126;BME280;63008;53.112;8.896;2023-07-22T05:33:14;101155.75;;;14.30;95.39
5126;BME280;63008;53.112;8.896;2023-07-22T05:35:15;101157.09;;;14.36;94.63
5126;BME280;63008;53.112;8.896;2023-07-22T05:37:16;101157.09;;;14.36;93.23
5126;BME280;63008;53.112;8.896;2023-07-22T05:39:17;101158.59;;;14.34;93.99
5126;BME280;63008;53.112;8.896;2023-07-22T05:41:19;101158.00;;;14.40;93.50
5126;BME280;63008;53.112;8.896;2023-07-22T05:43:21;101165.56;;;14.55;93.15
5126;BME280;63008;53.112;8.896;2023-07-22T05:45:22;101166.38;;;14.56;92.87
5126;BME280;63008;53.112;8.896;2023-07-22T05:47:23;101166.84;;;14.58;93.58
5126;BME280;63008;53.112;8.896;2023-07-22T05:49:24;101172.00;;;14.59;93.19
5126;BME280;63008;53.112;8.896;2023-07-22T05:51:26;101164.53;;;14.60;92.58
5126;BME280;63008;53.112;8.896;2023-07-22T05:53:27;101164.38;;;14.68;92.05
5126;BME280;63008;53.112;8.896;2023-07-22T05:55:28;101164.63;;;14.63;91.74
5126;BME280;63008;53.112;8.896;2023-07-22T05:57:29;101166.78;;;14.69;92.01
5126;BME280;63008;53.112;8.896;2023-07-22T05:59:30;101170.09;;;14.75;92.35
5126;BME280;63008;53.112;8.896;2023-07-22T06:01:31;101165.84;;;14.77;91.93
5126;BME280;63008;53.112;8.896;2023-07-22T06:03:32;101176.78;;;14.74;90.76
5126;BME280;63008;53.112;8.896;2023-07-22T06:05:33;101174.56;;;14.79;90.50
5126;BME280;63008;53.112;8.896;2023-07-22T06:07:34;101170.75;;;14.84;90.28
5126;BME280;63008;53.112;8.896;2023-07-22T06:09:35;101173.28;;;14.89;90.45
5126;BME280;63008;53.112;8.896;2023-07-22T06:11:36;101175.53;;;14.99;90.76
5126;BME280;63008;53.112;8.896;2023-07-22T06:13:37;101178.50;;;15.06;90.44
5126;BME280;63008;53.112;8.896;2023-07-22T06:15:38;101189.72;;;15.13;89.63
5126;BME280;63008;53.112;8.896;2023-07-22T06:17:39;101186.91;;;15.25;90.07
5126;BME280;63008;53.112;8.896;2023-07-22T06:19:40;101188.50;;;15.26;89.43
5126;BME280;63008;53.112;8.896;2023-07-22T06:21:41;101193.03;;;15.30;89.16
5126;BME280;63008;53.112;8.896;2023-07-22T06:23:42;101195.19;;;15.37;89.25
5126;BME280;63008;53.112;8.896;2023-07-22T06:25:43;101184.66;;;15.42;88.23
5126;BME280;63008;53.112;8.896;2023-07-22T06:27:44;101193.03;;;15.46;88.09
5126;BME280;63008;53.112;8.896;2023-07-22T06:29:45;101195.81;;;15.46;87.46
5126;BME280;63008;53.112;8.896;2023-07-22T06:31:46;101192.78;;;15.51;88.25
5126;BME280;63008;53.112;8.896;2023-07-22T06:33:47;101192.88;;;15.39;85.89
5126;BME280;63008;53.112;8.896;2023-07-22T06:35:48;101193.56;;;15.36;86.47
5126;BME280;63008;53.112;8.896;2023-07-22T06:37:50;101193.41;;;15.44;86.58
5126;BME280;63008;53.112;8.896;2023-07-22T06:39:51;101198.78;;;15.53;86.17
5126;BME280;63008;53.112;8.896;2023-07-22T06:41:51;101199.75;;;15.60;86.40
5126;BME280;63008;53.112;8.896;2023-07-22T06:43:52;101196.72;;;15.65;86.22
5126;BME280;63008;53.112;8.896;2023-07-22T06:45:53;101191.97;;;15.66;85.46
5126;BME280;63008;53.112;8.896;2023-07-22T06:47:54;101196.72;;;15.65;84.96
5126;BME280;63008;53.112;8.896;2023-07-22T06:49:55;101196.34;;;15.67;84.76
5126;BME280;63008;53.112;8.896;2023-07-22T06:51:56;101197.59;;;15.69;84.44
5126;BME280;63008;53.112;8.896;2023-07-22T06:53:57;101193.06;;;15.77;85.02
5126;BME280;63008;53.112;8.896;2023-07-22T06:55:58;101197.53;;;15.81;83.87
5126;BME280;63008;53.112;8.896;2023-07-22T06:57:59;101202.69;;;15.83;83.80
5126;BME280;63008;53.112;8.896;2023-07-22T07:00:00;101207.69;;;15.93;83.56
5126;BME280;63008;53.112;8.896;2023-07-22T07:02:03;101203.47;;;15.99;82.84
5126;BME280;63008;53.112;8.896;2023-07-22T07:04:04;101198.66;;;16.11;82.75
5126;BME280;63008;53.112;8.896;2023-07-22T07:06:05;101201.16;;;16.16;82.19
5126;BME280;63008;53.112;8.896;2023-07-22T07:08:06;101193.81;;;16.24;81.26
5126;BME280;63008;53.112;8.896;2023-07-22T07:10:07;101192.22;;;16.23;81.56
5126;BME280;63008;53.112;8.896;2023-07-22T07:12:08;101198.53;;;16.23;81.08
5126;BME280;63008;53.112;8.896;2023-07-22T07:14:09;101205.69;;;16.24;81.19
5126;BME280;63008;53.112;8.896;2023-07-22T07:16:21;101198.53;;;16.23;81.44
5126;BME280;63008;53.112;8.896;2023-07-22T07:18:23;101194.25;;;16.26;81.08
5126;BME280;63008;53.112;8.896;2023-07-22T07:20:24;101194.69;;;16.28;80.53
5126;BME280;63008;53.112;8.896;2023-07-22T07:22:25;101197.47;;;16.28;80.42
5126;BME280;63008;53.112;8.896;2023-07-22T07:24:26;101189.69;;;16.33;81.72
5126;BME280;63008;53.112;8.896;2023-07-22T07:26:28;101200.16;;;16.40;80.01
5126;BME280;63008;53.112;8.896;2023-07-22T07:28:28;101191.78;;;16.55;81.02
5126;BME280;63008;53.112;8.896;2023-07-22T07:30:30;101199.97;;;16.67;80.27
5126;BME280;63008;53.112;8.896;2023-07-22T07:32:31;101195.38;;;16.74;78.66
5126;BME280;63008;53.112;8.896;2023-07-22T07:34:32;101191.66;;;16.86;77.87
5126;BME280;63008;53.112;8.896;2023-07-22T07:36:33;101210.78;;;16.91;77.10
5126;BME280;63008;53.112;8.896;2023-07-22T07:38:35;101201.50;;;16.83;76.40
5126;BME280;63008;53.112;8.896;2023-07-22T07:40:36;101196.19;;;16.75;76.24
5126;BME280;63008;53.112;8.896;2023-07-22T07:42:37;101197.84;;;16.60;76.35
5126;BME280;63008;53.112;8.896;2023-07-22T07:44:38;101198.38;;;16.66;77.68
5126;BME280;63008;53.112;8.896;2023-07-22T07:46:39;101198.31;;;16.81;78.25
5126;BME280;63008;53.112;8.896;2023-07-22T07:48:40;101198.16;;;16.93;78.11
5126;BME280;63008;53.112;8.896;2023-07-22T07:50:41;101201.38;;;16.95;76.80
5126;BME280;63008;53.112;8.896;2023-07-22T07:52:42;101202.75;;;17.05;77.61
5126;BME280;63008;53.112;8.896;2023-07-22T07:54:43;101202.13;;;17.15;76.17
5126;BME280;63008;53.112;8.896;2023-07-22T07:56:44;101204.06;;;17.11;76.37
5126;BME280;63008;53.112;8.896;2023-07-22T07:58:47;101208.06;;;17.13;76.79
5126;BME280;63008;53.112;8.896;2023-07-22T08:00:48;101213.63;;;17.13;76.82
5126;BME280;63008;53.112;8.896;2023-07-22T08:02:49;101219.00;;;17.06;77.06
5126;BME280;63008;53.112;8.896;2023-07-22T08:04:50;101218.06;;;16.99;77.05
5126;BME280;63008;53.112;8.896;2023-07-22T08:06:51;101215.22;;;16.95;78.26
5126;BME280;63008;53.112;8.896;2023-07-22T08:08:52;101215.66;;;16.97;77.37
5126;BME280;63008;53.112;8.896;2023-07-22T08:11:08;101217.34;;;17.02;77.38
5126;BME280;63008;53.112;8.896;2023-07-22T08:13:10;101215.06;;;17.07;76.93
5126;BME280;63008;53.112;8.896;2023-07-22T08:15:11;101217.19;;;17.14;77.59
5126;BME280;63008;53.112;8.896;2023-07-22T08:17:12;101219.91;;;17.10;76.40
5126;BME280;63008;53.112;8.896;2023-07-22T08:19:13;101216.69;;;17.27;75.94
5126;BME280;63008;53.112;8.896;2023-07-22T08:21:14;101226.19;;;17.45;74.30
5126;BME280;63008;53.112;8.896;2023-07-22T08:23:15;101226.72;;;17.54;74.45
5126;BME280;63008;53.112;8.896;2023-07-22T08:25:16;101219.22;;;17.55;74.11
5126;BME280;63008;53.112;8.896;2023-07-22T08:27:16;101217.66;;;17.57;73.55
5126;BME280;63008;53.112;8.896;2023-07-22T08:29:17;101216.88;;;17.79;72.34
5126;BME280;63008;53.112;8.896;2023-07-22T08:31:18;101221.19;;;17.77;71.53
5126;BME280;63008;53.112;8.896;2023-07-22T08:33:19;101216.00;;;17.75;72.49
5126;BME280;63008;53.112;8.896;2023-07-22T08:35:20;101213.28;;;17.79;73.02
5126;BME280;63008;53.112;8.896;2023-07-22T08:37:23;101222.56;;;17.86;72.32
5126;BME280;63008;53.112;8.896;2023-07-22T08:39:23;101220.94;;;17.85;72.36
5126;BME280;63008;53.112;8.896;2023-07-22T08:41:25;101215.88;;;17.91;72.94
5126;BME280;63008;53.112;8.896;2023-07-22T08:43:28;101209.31;;;18.02;73.70
5126;BME280;63008;53.112;8.896;2023-07-22T08:45:31;101219.72;;;18.31;72.69
5126;BME280;63008;53.112;8.896;2023-07-22T08:47:40;101223.25;;;18.28;69.47
5126;BME280;63008;53.112;8.896;2023-07-22T08:49:51;101223.19;;;18.25;68.96
5126;BME280;63008;53.112;8.896;2023-07-22T08:51:54;101209.78;;;18.30;70.10
5126;BME280;63008;53.112;8.896;2023-07-22T08:53:58;101212.94;;;18.29;69.83
5126;BME280;63008;53.112;8.896;2023-07-22T08:56:00;101213.38;;;18.31;69.44
5126;BME280;63008;53.112;8.896;2023-07-22T08:58:02;101215.13;;;18.42;68.88
5126;BME280;63008;53.112;8.896;2023-07-22T09:00:03;101222.41;;;18.50;68.83
5126;BME280;63008;53.112;8.896;2023-07-22T09:02:10;101216.31;;;18.41;67.77
5126;BME280;63008;53.112;8.896;2023-07-22T09:04:12;101221.59;;;18.49;68.19
5126;BME280;63008;53.112;8.896;2023-07-22T09:06:13;101220.97;;;18.59;68.14
5126;BME280;63008;53.112;8.896;2023-07-22T09:08:14;101220.22;;;18.66;67.50
5126;BME280;63008;53.112;8.896;2023-07-22T09:10:15;101215.34;;;18.56;68.30
5126;BME280;63008;53.112;8.896;2023-07-22T09:12:17;101221.81;;;18.63;68.23
5126;BME280;63008;53.112;8.896;2023-07-22T09:14:19;101220.47;;;18.54;67.74
5126;BME280;63008;53.112;8.896;2023-07-22T09:16:20;101219.16;;;18.45;67.72
5126;BME280;63008;53.112;8.896;2023-07-22T09:18:21;101215.63;;;18.48;67.60
5126;BME280;63008;53.112;8.896;2023-07-22T09:20:22;101221.44;;;18.39;66.87
5126;BME280;63008;53.112;8.896;2023-07-22T09:22:26;101213.47;;;18.63;66.66
5126;BME280;63008;53.112;8.896;2023-07-22T09:24:28;101220.56;;;18.90;66.56
5126;BME280;63008;53.112;8.896;2023-07-22T09:26:32;101218.38;;;19.06;64.90
5126;BME280;63008;53.112;8.896;2023-07-22T09:28:48;101212.03;;;19.06;65.26
5126;BME280;63008;53.112;8.896;2023-07-22T09:30:49;101222.56;;;18.90;65.47
5126;BME280;63008;53.112;8.896;2023-07-22T09:33:03;101219.97;;;19.04;66.48
5126;BME280;63008;53.112;8.896;2023-07-22T09:35:04;101215.97;;;19.34;66.24
5126;BME280;63008;53.112;8.896;2023-07-22T09:37:10;101214.47;;;19.44;65.24
5126;BME280;63008;53.112;8.896;2023-07-22T09:39:14;101208.97;;;19.47;65.40
5126;BME280;63008;53.112;8.896;2023-07-22T09:41:19;101213.66;;;19.40;65.23
5126;BME280;63008;53.112;8.896;2023-07-22T09:43:21;101208.81;;;19.33;65.63
5126;BME280;63008;53.112;8.896;2023-07-22T09:45:24;101211.34;;;19.49;64.57
5126;BME280;63008;53.112;8.896;2023-07-22T09:47:25;101209.81;;;19.95;62.79
5126;BME280;63008;53.112;8.896;2023-07-22T09:49:26;101205.72;;;20.29;62.68
5126;BME280;63008;53.112;8.896;2023-07-22T09:51:33;101200.59;;;20.34;61.43
5126;BME280;63008;53.112;8.896;2023-07-22T09:53:34;101201.94;;;20.61;61.15
5126;BME280;63008;53.112;8.896;2023-07-22T09:55:35;101199.72;;;20.27;60.22
5126;BME280;63008;53.112;8.896;2023-07-22T09:57:36;101191.81;;;19.89;62.06
5126;BME280;63008;53.112;8.896;2023-07-22T09:59:37;101206.53;;;19.86;60.88
5126;BME280;63008;53.112;8.896;2023-07-22T10:01:39;101207.50;;;20.04;61.65
5126;BME280;63008;53.112;8.896;2023-07-22T10:03:42;101199.56;;;20.02;59.97
5126;BME280;63008;53.112;8.896;2023-07-22T10:05:45;101211.97;;;20.15;61.89
5126;BME280;63008;53.112;8.896;2023-07-22T10:07:50;101200.34;;;20.03;60.99
5126;BME280;63008;53.112;8.896;2023-07-22T10:09:54;101194.66;;;19.92;63.03
5126;BME280;63008;53.112;8.896;2023-07-22T10:11:55;101197.91;;;20.01;62.49
5126;BME280;63008;53.112;8.896;2023-07-22T10:13:56;101195.41;;;20.39;63.08
5126;BME280;63008;53.112;8.896;2023-07-22T10:15:58;101182.88;;;20.70;61.20
5126;BME280;63008;53.112;8.896;2023-07-22T10:18:00;101185.81;;;21.01;59.70
5126;BME280;63008;53.112;8.896;2023-07-22T10:20:02;101186.22;;;21.10;59.84
5126;BME280;63008;53.112;8.896;2023-07-22T10:22:08;101186.72;;;21.44;59.18
5126;BME280;63008;53.112;8.896;2023-07-22T10:24:11;101189.59;;;21.65;57.50
5126;BME280;63008;53.112;8.896;2023-07-22T10:26:12;101185.53;;;22.53;56.33
5126;BME280;63008;53.112;8.896;2023-07-22T10:28:15;101180.34;;;22.51;54.00
5126;BME280;63008;53.112;8.896;2023-07-22T10:30:17;101186.78;;;22.17;55.12
5126;BME280;63008;53.112;8.896;2023-07-22T10:32:18;101184.72;;;22.63;55.49
5126;BME280;63008;53.112;8.896;2023-07-22T10:34:23;101178.78;;;22.54;53.57
5126;BME280;63008;53.112;8.896;2023-07-22T10:36:29;101175.16;;;22.53;53.24
5126;BME280;63008;53.112;8.896;2023-07-22T10:38:30;101175.13;;;21.31;55.00
5126;BME280;63008;53.112;8.896;2023-07-22T10:40:47;101167.47;;;21.07;56.38